Latest Weather Observations for Swan Hill

IDV60801

Issued at 9:35 pm EST Tuesday 30 September 2014 (issued every 30 minutes, with the page automatically refreshed every 10 minutes)

About weather observations | Map of weather stations | Latest weather observations for VIC | Other Formats
Station Details ID: 077094 Name: SWAN HILL AERODROME Lat: -35.38 Lon: 143.54 Height: 71.0 m
Data from the previous 72 hours. | See also: Recent months at Swan Hill
Date/Time
EST
Temp
°C
App
Temp
°C
Dew
Point
Rel
Hum
%
Delta-T
°C
Wind Press
QNH
hPa
Press
MSL
hPa
Rain
since 9 am
mm
Dir
 
Spd
km/h
Gust
km/h
Spd
kts
Gust
kts
30/09:30pm 12.0 5.4 -0.2 43 5.0 WSW 24 33 13 18 1017.5 - 0.0
30/09:00pm 12.8 5.1 -0.3 40 5.4 WSW 30 44 16 24 1017.1 1017.2 0.0
30/08:30pm 14.0 5.3 -0.8 36 6.1 WSW 35 54 19 29 1016.4 - 0.0
30/08:02pm 15.0 6.1 0.5 37 6.2 SW 37 61 20 33 1015.9 - 0.0
30/08:00pm 14.9 6.6 2.0 41 5.7 SW 35 46 19 25 1015.8 - 0.0
30/07:30pm 14.5 6.8 3.2 46 5.1 WSW 33 44 18 24 1015.0 - 0.0
30/07:00pm 15.0 5.8 1.5 40 5.9 WSW 39 54 21 29 1014.2 - 0.0
30/06:30pm 15.4 5.2 3.1 43 5.6 WSW 46 67 25 36 1013.5 - 0.0
30/06:00pm 15.5 6.3 6.2 54 4.5 SW 44 67 24 36 1012.8 1012.8 0.0
30/05:30pm 16.9 7.4 6.8 51 5.0 SW 46 70 25 38 1012.1 - 0.0
30/05:00pm 20.3 9.8 5.6 38 7.3 WSW 50 69 27 37 1010.8 - 0.0
30/04:30pm 21.8 10.1 6.0 35 8.0 WSW 57 80 31 43 1009.8 - 0.0
30/04:00pm 24.7 10.7 -0.4 19 11.5 W 63 83 34 45 1008.8 - 0.0
30/03:30pm 26.4 12.7 -3.9 13 13.2 W 59 78 32 42 1008.2 - 0.0
30/03:00pm 25.7 12.4 -1.0 17 12.2 W 59 83 32 45 1008.0 1007.8 0.0
30/02:30pm 27.1 14.1 -1.6 15 13.1 WNW 57 76 31 41 1007.8 - 0.0
30/02:00pm 27.1 15.1 -0.7 16 12.9 WNW 52 76 28 41 1008.3 - 0.0
30/01:30pm 26.8 14.4 1.5 19 12.2 WNW 56 82 30 44 1008.9 - 0.0
30/01:00pm 25.7 13.0 1.0 20 11.7 WNW 57 83 31 45 1009.2 - 0.0
30/12:30pm 25.8 13.8 1.6 20 11.6 WNW 54 72 29 39 1009.6 - 0.0
30/12:05pm 25.3 14.8 1.6 21 11.3 WNW 46 65 25 35 1009.9 - 0.0
30/12:00pm 25.4 15.1 2.6 22 11.1 WNW 46 63 25 34 1010.1 1010.1 0.0
30/11:30am 24.3 15.2 2.1 23 10.6 NW 39 57 21 31 1010.8 - 0.0
30/11:22am 23.7 15.0 1.7 23 10.4 NW 37 57 20 31 1010.6 - 0.0
30/11:00am 24.4 16.9 3.4 25 10.3 NW 32 48 17 26 1010.9 - 0.0
30/10:30am 22.0 14.7 4.5 32 8.6 NNW 32 43 17 23 1011.8 - 0.0
30/10:00am 21.9 16.8 5.8 35 8.1 NNW 22 32 12 17 1012.3 - 0.0
30/09:30am 19.7 15.3 7.6 45 6.2 N 20 26 11 14 1012.6 - 0.0
30/09:00am 18.1 14.6 8.7 54 4.9 N 17 20 9 11 1012.9 1012.8 0.0
30/08:30am 16.3 13.3 9.4 63 3.6 N 15 20 8 11 1013.0 - 0.0
30/08:00am 14.2 12.1 9.8 75 2.3 WNW 11 13 6 7 1013.4 - 0.0
30/07:30am 11.4 9.9 9.0 85 1.2 WNW 7 9 4 5 1013.5 - 0.0
30/07:00am 8.0 5.9 6.7 91 0.6 WNW 7 7 4 4 1013.5 - 0.0
30/06:30am 6.4 4.2 5.3 93 0.5 WNW 6 7 3 4 1013.0 - 0.0
30/06:00am 6.5 4.2 5.6 94 0.4 WNW 7 9 4 5 1012.9 1012.9 0.0
30/05:30am 6.8 4.5 5.7 93 0.5 WNW 7 9 4 5 1012.7 - 0.0
30/05:00am 7.3 5.2 6.0 91 0.6 WNW 6 7 3 4 1012.6 - 0.0
30/04:30am 7.0 4.7 5.7 91 0.6 WNW 7 9 4 5 1012.5 - 0.0
30/04:00am 7.7 5.6 5.9 88 0.8 WNW 6 6 3 3 1012.5 - 0.0
30/03:30am 8.7 7.1 6.5 86 1.0 WNW 4 7 2 4 1012.5 - 0.0
30/03:00am 8.8 7.9 6.2 84 1.2 CALM 0 6 0 3 1012.6 1012.6 0.0
30/02:30am 8.6 5.9 5.5 81 1.4 WNW 9 11 5 6 1012.6 - 0.0
30/02:00am 9.1 6.1 5.8 80 1.5 WNW 11 13 6 7 1012.5 - 0.0
30/01:30am 10.6 7.6 6.1 74 2.1 WNW 11 13 6 7 1012.6 - 0.0
30/01:00am 9.7 6.1 6.7 81 1.4 W 15 24 8 13 1012.7 - 0.0
30/12:30am 9.4 7.8 6.4 81 1.4 NW 4 7 2 4 1012.4 - 0.0
30/12:00am 10.3 8.9 7.4 82 1.4 NW 4 7 2 4 1012.6 1012.6 0.0
 
Date/Time
EST
Temp
°C
App
Temp
°C
Dew
Point
Rel
Hum
%
Delta-T
°C
Wind Press
QNH
hPa
Press
MSL
hPa
Rain
since 9 am
mm
Dir
 
Spd
km/h
Gust
km/h
Spd
kts
Gust
kts
29/11:30pm 10.2 8.7 6.8 79 1.6 NW 4 7 2 4 1013.0 - 0.0
29/11:00pm 11.6 9.8 8.1 79 1.7 NW 7 7 4 4 1013.1 - 0.0
29/10:30pm 11.8 10.0 7.9 77 1.9 NW 7 7 4 4 1013.3 - 0.0
29/10:00pm 12.3 10.2 6.7 68 2.7 NW 7 9 4 5 1013.4 - 0.0
29/09:30pm 12.8 10.9 7.5 70 2.6 NW 7 7 4 4 1013.6 - 0.0
29/09:00pm 13.4 11.4 7.3 66 3.0 NW 7 7 4 4 1013.6 1013.6 0.0
29/08:30pm 14.0 12.2 8.0 67 3.0 NW 7 9 4 5 1013.5 - 0.0
29/08:00pm 14.8 13.2 8.0 64 3.4 NW 6 6 3 3 1013.5 - 0.0
29/07:30pm 16.2 14.3 7.6 56 4.3 NW 7 7 4 4 1013.2 - 0.0
29/07:00pm 16.2 13.8 6.9 54 4.6 NW 9 11 5 6 1013.1 - 0.0
29/06:30pm 17.6 14.8 6.8 49 5.4 NW 11 15 6 8 1012.9 - 0.0
29/06:00pm 20.2 16.9 6.5 41 6.9 NW 13 15 7 8 1012.7 1012.7 0.0
29/05:30pm 22.2 18.8 5.7 34 8.3 NW 13 20 7 11 1012.6 - 0.0
29/05:00pm 22.7 19.1 4.8 31 8.9 NNW 13 20 7 11 1012.5 - 0.0
29/04:30pm 23.1 18.7 4.5 29 9.2 NNW 17 24 9 13 1012.5 - 0.0
29/04:00pm 23.0 19.6 4.1 29 9.3 NNW 11 20 6 11 1012.6 - 0.0
29/03:30pm 23.4 19.1 3.5 27 9.7 NW 15 26 8 14 1012.9 - 0.0
29/03:00pm 23.2 18.1 4.1 29 9.4 NW 20 28 11 15 1013.2 1013.2 0.0
29/02:30pm 22.9 18.3 5.4 32 8.8 NW 19 24 10 13 1013.6 - 0.0
29/02:00pm 22.4 17.3 6.0 34 8.3 NW 22 28 12 15 1014.0 - 0.0
29/01:30pm 21.7 17.2 6.3 36 7.8 NNW 19 24 10 13 1014.5 - 0.0
29/01:00pm 21.8 18.0 5.9 35 8.0 WNW 15 26 8 14 1014.9 - 0.0
29/12:30pm 21.1 16.5 5.4 36 7.8 WNW 19 28 10 15 1015.2 - 0.0
29/12:00pm 20.7 16.9 5.6 37 7.5 WNW 15 30 8 16 1015.5 1015.7 0.0
29/11:30am 20.2 16.9 6.5 41 6.9 WNW 13 22 7 12 1015.9 - 0.0
29/11:00am 19.4 16.2 6.9 44 6.3 WNW 13 20 7 11 1016.0 - 0.0
29/10:30am 19.0 16.8 7.9 48 5.7 WSW 9 15 5 8 1016.2 - 0.0
29/10:00am 17.2 13.9 8.0 54 4.7 WSW 15 30 8 16 1016.5 - 0.0
29/09:30am 17.1 13.5 8.5 57 4.4 WSW 17 24 9 13 1016.6 - 0.0
29/09:00am 16.3 12.2 8.7 60 3.9 WSW 20 28 11 15 1016.6 1016.7 0.0
29/08:30am 15.7 12.2 8.6 62 3.6 W 17 26 9 14 1016.3 - 0.0
29/08:00am 14.1 10.9 8.5 69 2.8 W 15 20 8 11 1016.0 - 0.0
29/07:30am 12.0 8.7 8.1 77 1.9 WNW 15 20 8 11 1015.8 - 0.0
29/07:00am 9.7 6.7 7.6 87 1.0 WNW 13 17 7 9 1015.5 - 0.0
29/06:30am 7.6 4.2 6.1 90 0.7 WNW 13 15 7 8 1015.2 - 0.0
29/06:00am 7.0 3.9 5.4 89 0.7 WNW 11 13 6 7 1014.8 1014.9 0.0
29/05:30am 7.3 3.9 5.7 89 0.7 WNW 13 15 7 8 1014.3 - 0.0
29/05:00am 7.3 4.1 5.3 87 0.9 WNW 11 13 6 7 1014.0 - 0.0
29/04:30am 7.5 4.4 5.5 87 0.9 WNW 11 13 6 7 1013.7 - 0.0
29/04:00am 7.7 4.6 5.7 87 0.9 WNW 11 15 6 8 1013.7 - 0.0
29/03:30am 8.2 5.2 5.8 85 1.1 WNW 11 13 6 7 1013.6 - 0.0
29/03:00am 9.3 5.5 6.0 80 1.5 WNW 15 17 8 9 1013.5 1013.5 0.0
29/02:30am 9.7 7.5 6.3 79 1.6 WSW 7 9 4 5 1013.6 - 0.0
29/02:00am 11.5 8.9 6.2 70 2.5 WSW 9 11 5 6 1013.6 - 0.0
29/01:30am 12.8 9.0 5.8 62 3.3 WSW 15 19 8 10 1013.6 - 0.0
29/01:00am 13.7 9.8 5.4 57 3.9 WSW 15 20 8 11 1013.2 - 0.0
29/12:30am 14.8 10.0 4.8 51 4.7 WSW 19 26 10 14 1012.7 - 0.0
29/12:00am 15.7 10.5 5.7 51 4.8 W 22 28 12 15 1012.1 1012.1 0.0
 
Date/Time
EST
Temp
°C
App
Temp
°C
Dew
Point
Rel
Hum
%
Delta-T
°C
Wind Press
QNH
hPa
Press
MSL
hPa
Rain
since 9 am
mm
Dir
 
Spd
km/h
Gust
km/h
Spd
kts
Gust
kts
28/11:30pm 16.8 11.9 6.7 51 5.0 WSW 22 28 12 15 1011.6 - 0.0
28/11:00pm 18.2 11.7 6.6 46 5.8 WSW 30 41 16 22 1011.1 - 0.0
28/10:31pm 20.0 11.4 6.3 41 6.9 SW 41 61 22 33 1010.1 - 0.0
28/10:30pm 20.0 11.4 6.3 41 6.9 SW 41 57 22 31 1010.0 - 0.0
28/10:29pm 20.1 11.8 6.1 40 7.0 WSW 39 54 21 29 1010.1 - 0.0
28/10:22pm 21.8 13.9 1.2 25 9.5 W 32 44 17 24 1009.8 - 0.0
28/10:00pm 23.1 16.3 0.5 22 10.4 N 26 37 14 20 1007.8 - 0.0
28/09:30pm 22.8 16.8 1.0 23 10.1 N 22 30 12 16 1008.0 - 0.0
28/09:00pm 23.1 17.5 1.3 23 10.2 N 20 28 11 15 1007.9 1007.8 0.0
28/08:30pm 23.9 17.8 0.7 21 10.8 N 22 32 12 17 1007.8 - 0.0
28/08:00pm 24.1 18.1 1.1 22 10.8 N 22 30 12 16 1007.8 - 0.0
28/07:30pm 23.8 18.3 1.9 23 10.4 N 20 26 11 14 1007.6 - 0.0
28/07:00pm 24.6 19.0 1.4 22 11.0 N 20 24 11 13 1007.5 - 0.0
28/06:30pm 26.6 19.7 -0.1 17 12.4 NNW 26 32 14 17 1007.2 - 0.0
28/06:00pm 27.5 19.7 -0.5 16 13.1 NNW 30 41 16 22 1007.2 1007.2 0.0
28/05:30pm 28.3 19.1 -1.7 14 13.8 NNW 37 52 20 28 1007.3 - 0.0
28/05:07pm 29.4 20.1 -2.0 13 14.5 NNW 37 56 20 30 1007.3 - 0.0
28/05:00pm 28.9 18.8 -2.4 13 14.3 NNW 41 50 22 27 1007.2 - 0.0
28/04:51pm 29.2 19.4 -3.1 12 14.6 NNW 39 57 21 31 1007.1 - 0.0
28/04:30pm 29.2 19.0 -3.1 12 14.6 NNW 41 54 22 29 1007.0 - 0.0
28/04:17pm 29.7 20.1 -1.2 13 14.5 NNW 39 57 21 31 1007.4 - 0.0
28/04:00pm 29.4 19.0 -5.2 10 15.1 NNW 41 57 22 31 1007.3 - 0.0
28/03:55pm 30.1 20.1 -4.6 10 15.4 NNW 39 57 21 31 1007.3 - 0.0
28/03:30pm 30.0 19.6 -5.0 10 15.4 NNW 41 54 22 29 1007.7 - 0.0
28/03:00pm 30.6 19.5 -5.9 9 15.9 NW 44 54 24 29 1008.4 1008.4 0.0
28/02:30pm 30.3 20.3 -5.2 9 15.6 N 39 61 21 33 1009.0 - 0.0
28/02:02pm 30.0 19.9 -5.6 9 15.5 N 39 61 21 33 1009.9 - 0.0
28/02:00pm 30.2 20.4 -2.8 11 15.1 NNW 39 56 21 30 1010.0 - 0.0
28/01:30pm 30.1 19.3 -3.6 11 15.2 NNW 44 57 24 31 1010.9 - 0.0
28/01:00pm 29.5 18.2 -4.4 11 15.0 N 46 69 25 37 1009.8 - 0.0
28/12:57pm 29.3 18.0 -4.4 11 14.9 N 46 69 25 37 1009.9 - 0.0
28/12:30pm 29.2 18.6 -2.2 13 14.4 N 44 61 24 33 1010.2 - 0.0
28/12:01pm 28.5 17.6 -1.2 14 13.8 N 46 65 25 35 1010.9 - 0.0
28/12:00pm 28.5 17.6 -1.2 14 13.8 N 46 63 25 34 1011.1 1010.9 0.0
28/11:32am 28.2 18.8 0.2 16 13.3 N 39 63 21 34 1011.5 - 0.0
28/11:30am 28.7 19.2 1.7 17 13.2 N 41 57 22 31 1011.7 - 0.0
28/11:20am 28.0 18.2 0.1 16 13.2 N 41 61 22 33 1011.8 - 0.0
28/11:00am 27.7 18.5 1.4 18 12.7 N 39 52 21 28 1012.2 - 0.0
28/10:30am 26.5 19.0 4.6 24 11.1 N 33 46 18 25 1013.0 - 0.0
28/10:00am 24.7 17.2 4.2 26 10.2 N 33 44 18 24 1013.9 - 0.0
28/09:30am 22.9 16.2 5.4 32 8.8 N 30 39 16 21 1014.9 - 0.0
28/09:00am 21.1 15.8 6.8 39 7.3 N 24 35 13 19 1015.4 1015.5 0.2
28/08:30am 19.2 13.5 6.9 44 6.2 N 26 35 14 19 1015.7 - 0.2
28/08:00am 17.6 12.7 7.0 50 5.3 N 22 30 12 16 1015.8 - 0.2
28/07:30am 16.0 11.1 6.9 54 4.5 N 22 32 12 17 1015.8 - 0.2
28/07:00am 14.7 9.8 6.7 58 3.9 N 22 26 12 14 1015.7 - 0.2
28/06:30am 13.8 9.4 6.5 61 3.5 N 19 26 10 14 1015.5 - 0.2
28/06:00am 13.3 8.7 6.4 63 3.3 N 20 24 11 13 1015.4 1015.5 0.2
28/05:30am 13.8 9.3 6.1 59 3.7 N 19 24 10 13 1015.2 - 0.2
28/05:00am 13.1 9.0 6.4 64 3.2 N 17 20 9 11 1015.3 - 0.2
28/04:30am 13.5 9.1 6.4 62 3.4 N 19 20 10 11 1015.3 - 0.2
28/04:00am 13.9 9.4 6.2 59 3.7 N 19 22 10 12 1015.4 - 0.2
28/03:30am 14.4 10.3 6.1 57 4.0 N 17 22 9 12 1015.4 - 0.2
28/03:00am 14.4 10.3 6.3 58 3.9 N 17 19 9 10 1015.6 1015.7 0.2
28/02:30am 15.0 11.3 6.3 56 4.2 N 15 17 8 9 1015.8 - 0.2
28/02:00am 14.7 10.6 6.4 57 4.0 N 17 20 9 11 1016.2 - 0.2
28/01:30am 14.3 10.6 6.4 59 3.8 N 15 19 8 10 1016.5 - 0.2
28/01:00am 13.9 10.3 6.7 62 3.5 N 15 19 8 10 1016.8 - 0.2
28/12:30am 14.0 10.0 6.8 62 3.5 N 17 19 9 10 1017.0 - 0.2
28/12:00am 15.4 11.3 6.3 54 4.4 N 17 20 9 11 1017.1 1017.2 0.2
 
Date/Time
EST
Temp
°C
App
Temp
°C
Dew
Point
Rel
Hum
%
Delta-T
°C
Wind Press
QNH
hPa
Press
MSL
hPa
Rain
since 9 am
mm
Dir
 
Spd
km/h
Gust
km/h
Spd
kts
Gust
kts
27/11:30pm 16.0 11.9 6.1 52 4.8 N 17 20 9 11 1017.3 - 0.2
27/11:00pm 17.0 13.6 5.9 48 5.4 N 13 17 7 9 1017.5 - 0.2
27/10:30pm 16.9 13.6 6.3 49 5.2 N 13 19 7 10 1017.6 - 0.2
27/10:00pm 15.6 12.6 7.6 59 4.0 NE 13 15 7 8 1017.5 - 0.2

Other Formats:

Comma delimited format used in spreadsheet applications
http://www.bom.gov.au/fwo/IDV60801/IDV60801.94843.axf

JavaScript Object Notation format (JSON) in row-major order
http://www.bom.gov.au/fwo/IDV60801/IDV60801.94843.json